sensor_id;sensor_type;location;lat;lon;timestamp;temperature;humidity
43647;DHT22;56152;49.996;18.980;2023-02-26T00:04:30;0.70;96.80
43647;DHT22;56152;49.996;18.980;2023-02-26T00:09:32;0.70;96.80
43647;DHT22;56152;49.996;18.980;2023-02-26T00:14:35;0.70;96.80
43647;DHT22;56152;49.996;18.980;2023-02-26T00:19:43;0.70;96.80
43647;DHT22;56152;49.996;18.980;2023-02-26T00:24:48;0.70;96.80
43647;DHT22;56152;49.996;18.980;2023-02-26T00:29:51;0.70;96.70
43647;DHT22;56152;49.996;18.980;2023-02-26T00:34:57;0.60;96.70
43647;DHT22;56152;49.996;18.980;2023-02-26T00:40:13;0.60;96.80
43647;DHT22;56152;49.996;18.980;2023-02-26T00:45:17;0.60;96.80
43647;DHT22;56152;49.996;18.980;2023-02-26T00:50:24;0.60;96.80
43647;DHT22;56152;49.996;18.980;2023-02-26T00:55:27;0.60;96.80
43647;DHT22;56152;49.996;18.980;2023-02-26T01:00:30;0.50;96.70
43647;DHT22;56152;49.996;18.980;2023-02-26T01:05:38;0.60;96.80
43647;DHT22;56152;49.996;18.980;2023-02-26T01:10:41;0.50;96.80
43647;DHT22;56152;49.996;18.980;2023-02-26T01:15:47;0.60;96.80
43647;DHT22;56152;49.996;18.980;2023-02-26T01:20:57;0.60;96.80
43647;DHT22;56152;49.996;18.980;2023-02-26T01:26:11;0.60;96.80
43647;DHT22;56152;49.996;18.980;2023-02-26T01:36:53;0.50;96.70
43647;DHT22;56152;49.996;18.980;2023-02-26T01:42:02;0.50;96.80
43647;DHT22;56152;49.996;18.980;2023-02-26T01:47:17;0.40;96.80
43647;DHT22;56152;49.996;18.980;2023-02-26T01:58:06;0.40;96.80
43647;DHT22;56152;49.996;18.980;2023-02-26T02:03:11;0.40;96.80
43647;DHT22;56152;49.996;18.980;2023-02-26T02:08:13;0.40;96.80
43647;DHT22;56152;49.996;18.980;2023-02-26T02:13:28;0.40;96.80
43647;DHT22;56152;49.996;18.980;2023-02-26T02:18:37;0.40;96.70
43647;DHT22;56152;49.996;18.980;2023-02-26T02:23:46;0.40;96.70
43647;DHT22;56152;49.996;18.980;2023-02-26T02:34:21;0.40;97.00
43647;DHT22;56152;49.996;18.980;2023-02-26T02:39:28;0.30;96.80
43647;DHT22;56152;49.996;18.980;2023-02-26T02:44:34;0.30;96.80
43647;DHT22;56152;49.996;18.980;2023-02-26T02:49:42;0.30;96.80
43647;DHT22;56152;49.996;18.980;2023-02-26T02:54:54;0.30;96.90
43647;DHT22;56152;49.996;18.980;2023-02-26T03:00:02;0.30;96.90
43647;DHT22;56152;49.996;18.980;2023-02-26T03:05:07;0.30;96.90
43647;DHT22;56152;49.996;18.980;2023-02-26T03:10:10;0.30;96.90
43647;DHT22;56152;49.996;18.980;2023-02-26T03:15:14;0.20;96.90
43647;DHT22;56152;49.996;18.980;2023-02-26T03:20:25;0.30;96.90
43647;DHT22;56152;49.996;18.980;2023-02-26T03:25:41;0.20;96.90
43647;DHT22;56152;49.996;18.980;2023-02-26T03:30:52;0.20;96.90
43647;DHT22;56152;49.996;18.980;2023-02-26T03:36:02;0.20;96.90
43647;DHT22;56152;49.996;18.980;2023-02-26T03:41:08;0.20;96.90
43647;DHT22;56152;49.996;18.980;2023-02-26T03:46:17;0.10;96.90
43647;DHT22;56152;49.996;18.980;2023-02-26T03:51:26;0.20;96.90
43647;DHT22;56152;49.996;18.980;2023-02-26T03:56:32;0.20;96.90
43647;DHT22;56152;49.996;18.980;2023-02-26T04:01:40;0.20;96.90
43647;DHT22;56152;49.996;18.980;2023-02-26T04:06:46;0.10;96.80
43647;DHT22;56152;49.996;18.980;2023-02-26T04:11:50;0.00;96.80
43647;DHT22;56152;49.996;18.980;2023-02-26T04:16:53;-0.10;96.80
43647;DHT22;56152;49.996;18.980;2023-02-26T04:22:00;-0.20;96.90
43647;DHT22;56152;49.996;18.980;2023-02-26T04:27:03;-0.30;97.00
43647;DHT22;56152;49.996;18.980;2023-02-26T04:32:06;-0.30;97.00
43647;DHT22;56152;49.996;18.980;2023-02-26T04:37:10;-0.30;97.00
43647;DHT22;56152;49.996;18.980;2023-02-26T04:42:12;-0.30;97.00
43647;DHT22;56152;49.996;18.980;2023-02-26T04:47:14;-0.30;96.90
43647;DHT22;56152;49.996;18.980;2023-02-26T04:52:18;-0.30;96.90
43647;DHT22;56152;49.996;18.980;2023-02-26T04:57:20;-0.20;96.90
43647;DHT22;56152;49.996;18.980;2023-02-26T05:02:25;-0.20;96.80
43647;DHT22;56152;49.996;18.980;2023-02-26T05:07:33;-0.20;96.80
43647;DHT22;56152;49.996;18.980;2023-02-26T05:12:35;-0.30;96.80
43647;DHT22;56152;49.996;18.980;2023-02-26T05:17:37;-0.30;96.80
43647;DHT22;56152;49.996;18.980;2023-02-26T05:22:41;-0.30;96.70
43647;DHT22;56152;49.996;18.980;2023-02-26T05:27:44;-0.30;96.70
43647;DHT22;56152;49.996;18.980;2023-02-26T05:32:47;-0.40;96.70
43647;DHT22;56152;49.996;18.980;2023-02-26T05:37:51;-0.50;96.70
43647;DHT22;56152;49.996;18.980;2023-02-26T05:42:53;-0.50;96.70
43647;DHT22;56152;49.996;18.980;2023-02-26T05:48:02;-0.60;96.70
43647;DHT22;56152;49.996;18.980;2023-02-26T05:53:06;-0.70;96.70
43647;DHT22;56152;49.996;18.980;2023-02-26T05:58:08;-0.70;96.70
43647;DHT22;56152;49.996;18.980;2023-02-26T06:03:11;-0.70;96.80
43647;DHT22;56152;49.996;18.980;2023-02-26T06:08:15;-0.70;96.80
43647;DHT22;56152;49.996;18.980;2023-02-26T06:13:17;-0.60;96.80
43647;DHT22;56152;49.996;18.980;2023-02-26T06:18:19;-0.60;96.70
43647;DHT22;56152;49.996;18.980;2023-02-26T06:23:24;-0.50;96.70
43647;DHT22;56152;49.996;18.980;2023-02-26T06:28:26;-0.50;96.70
43647;DHT22;56152;49.996;18.980;2023-02-26T06:33:28;-0.40;96.70
43647;DHT22;56152;49.996;18.980;2023-02-26T06:38:32;-0.20;96.60
43647;DHT22;56152;49.996;18.980;2023-02-26T06:43:34;0.10;96.50
43647;DHT22;56152;49.996;18.980;2023-02-26T06:48:40;0.30;96.30
43647;DHT22;56152;49.996;18.980;2023-02-26T06:53:43;0.60;96.20
43647;DHT22;56152;49.996;18.980;2023-02-26T06:58:51;1.00;95.90
43647;DHT22;56152;49.996;18.980;2023-02-26T07:03:58;1.20;95.50
43647;DHT22;56152;49.996;18.980;2023-02-26T07:09:03;1.40;95.30
43647;DHT22;56152;49.996;18.980;2023-02-26T07:14:05;1.60;95.10
43647;DHT22;56152;49.996;18.980;2023-02-26T07:19:07;1.80;94.90
43647;DHT22;56152;49.996;18.980;2023-02-26T07:24:15;2.00;94.80
43647;DHT22;56152;49.996;18.980;2023-02-26T07:29:18;2.30;94.40
43647;DHT22;56152;49.996;18.980;2023-02-26T07:34:20;2.20;94.20
43647;DHT22;56152;49.996;18.980;2023-02-26T07:39:27;2.20;94.20
43647;DHT22;56152;49.996;18.980;2023-02-26T07:44:32;2.10;94.40
43647;DHT22;56152;49.996;18.980;2023-02-26T07:49:36;2.10;94.50
43647;DHT22;56152;49.996;18.980;2023-02-26T07:54:43;2.00;94.30
43647;DHT22;56152;49.996;18.980;2023-02-26T07:59:45;1.70;94.30
43647;DHT22;56152;49.996;18.980;2023-02-26T08:04:48;1.80;94.50
43647;DHT22;56152;49.996;18.980;2023-02-26T08:09:52;1.70;94.50
43647;DHT22;56152;49.996;18.980;2023-02-26T08:14:54;2.20;94.60
43647;DHT22;56152;49.996;18.980;2023-02-26T08:20:01;2.50;94.10
43647;DHT22;56152;49.996;18.980;2023-02-26T08:25:08;2.50;93.60
43647;DHT22;56152;49.996;18.980;2023-02-26T08:30:14;2.30;93.60
43647;DHT22;56152;49.996;18.980;2023-02-26T08:35:20;2.10;93.60
43647;DHT22;56152;49.996;18.980;2023-02-26T08:40:25;1.90;93.80
43647;DHT22;56152;49.996;18.980;2023-02-26T08:45:27;2.20;94.20
43647;DHT22;56152;49.996;18.980;2023-02-26T08:50:30;2.70;93.70
43647;DHT22;56152;49.996;18.980;2023-02-26T08:55:40;2.90;93.00
43647;DHT22;56152;49.996;18.980;2023-02-26T09:00:44;3.30;93.00
43647;DHT22;56152;49.996;18.980;2023-02-26T09:05:49;3.30;92.50
43647;DHT22;56152;49.996;18.980;2023-02-26T09:10:54;3.10;92.60
43647;DHT22;56152;49.996;18.980;2023-02-26T09:16:00;2.60;92.50
43647;DHT22;56152;49.996;18.980;2023-02-26T09:21:03;2.10;92.60
43647;DHT22;56152;49.996;18.980;2023-02-26T09:26:08;1.50;93.10
43647;DHT22;56152;49.996;18.980;2023-02-26T09:31:11;1.20;93.70
43647;DHT22;56152;49.996;18.980;2023-02-26T09:36:13;1.00;93.90
43647;DHT22;56152;49.996;18.980;2023-02-26T09:41:23;0.90;94.00
43647;DHT22;56152;49.996;18.980;2023-02-26T09:46:34;1.00;94.10
43647;DHT22;56152;49.996;18.980;2023-02-26T09:51:42;1.00;94.10
43647;DHT22;56152;49.996;18.980;2023-02-26T09:56:49;1.10;94.20
43647;DHT22;56152;49.996;18.980;2023-02-26T10:01:57;1.60;94.20
43647;DHT22;56152;49.996;18.980;2023-02-26T10:07:16;2.20;93.90
43647;DHT22;56152;49.996;18.980;2023-02-26T10:12:25;2.70;93.20
43647;DHT22;56152;49.996;18.980;2023-02-26T10:17:32;2.90;92.90
43647;DHT22;56152;49.996;18.980;2023-02-26T10:22:39;3.30;92.60
43647;DHT22;56152;49.996;18.980;2023-02-26T10:27:51;3.40;92.10
43647;DHT22;56152;49.996;18.980;2023-02-26T10:32:58;3.40;92.30
43647;DHT22;56152;49.996;18.980;2023-02-26T10:38:09;3.20;92.20
43647;DHT22;56152;49.996;18.980;2023-02-26T10:43:17;3.00;92.10
43647;DHT22;56152;49.996;18.980;2023-02-26T10:48:30;2.90;92.30
43647;DHT22;56152;49.996;18.980;2023-02-26T10:53:34;2.80;92.30
43647;DHT22;56152;49.996;18.980;2023-02-26T10:58:38;2.60;92.50
43647;DHT22;56152;49.996;18.980;2023-02-26T11:03:43;2.50;92.10
43647;DHT22;56152;49.996;18.980;2023-02-26T11:08:48;2.40;92.10
43647;DHT22;56152;49.996;18.980;2023-02-26T11:13:55;2.40;92.10
43647;DHT22;56152;49.996;18.980;2023-02-26T11:18:58;2.20;92.00
43647;DHT22;56152;49.996;18.980;2023-02-26T11:24:04;1.80;92.30
43647;DHT22;56152;49.996;18.980;2023-02-26T11:29:14;1.50;92.90
43647;DHT22;56152;49.996;18.980;2023-02-26T11:34:21;1.40;93.20
43647;DHT22;56152;49.996;18.980;2023-02-26T11:39:25;1.40;93.50
43647;DHT22;56152;49.996;18.980;2023-02-26T11:44:35;1.50;93.60
43647;DHT22;56152;49.996;18.980;2023-02-26T11:49:42;1.60;93.60
43647;DHT22;56152;49.996;18.980;2023-02-26T11:54:49;1.80;93.60
43647;DHT22;56152;49.996;18.980;2023-02-26T11:59:57;2.00;93.30
43647;DHT22;56152;49.996;18.980;2023-02-26T12:05:02;1.90;93.10
43647;DHT22;56152;49.996;18.980;2023-02-26T12:10:12;1.80;93.20
43647;DHT22;56152;49.996;18.980;2023-02-26T12:15:22;1.90;93.30
43647;DHT22;56152;49.996;18.980;2023-02-26T12:20:31;2.00;93.20
43647;DHT22;56152;49.996;18.980;2023-02-26T12:25:53;1.80;93.10
43647;DHT22;56152;49.996;18.980;2023-02-26T12:31:16;1.60;93.30
43647;DHT22;56152;49.996;18.980;2023-02-26T12:36:32;1.50;93.50
43647;DHT22;56152;49.996;18.980;2023-02-26T12:41:55;1.50;93.60
43647;DHT22;56152;49.996;18.980;2023-02-26T12:47:17;1.60;93.60
43647;DHT22;56152;49.996;18.980;2023-02-26T12:52:46;1.60;93.40
43647;DHT22;56152;49.996;18.980;2023-02-26T13:10:09;1.80;93.30
43647;DHT22;56152;49.996;18.980;2023-02-26T13:16:19;1.80;93.10
43647;DHT22;56152;49.996;18.980;2023-02-26T13:22:04;1.80;93.00
43647;DHT22;56152;49.996;18.980;2023-02-26T13:27:10;1.60;92.90
43647;DHT22;56152;49.996;18.980;2023-02-26T13:32:20;1.50;92.90
43647;DHT22;56152;49.996;18.980;2023-02-26T13:37:29;1.50;92.80
43647;DHT22;56152;49.996;18.980;2023-02-26T13:42:42;1.30;92.80
43647;DHT22;56152;49.996;18.980;2023-02-26T13:47:57;1.30;93.00
43647;DHT22;56152;49.996;18.980;2023-02-26T13:53:20;1.30;93.00
43647;DHT22;56152;49.996;18.980;2023-02-26T13:58:42;1.20;93.00
43647;DHT22;56152;49.996;18.980;2023-02-26T14:03:49;1.10;93.10
43647;DHT22;56152;49.996;18.980;2023-02-26T14:08:54;1.00;93.10
43647;DHT22;56152;49.996;18.980;2023-02-26T14:14:16;0.90;93.30
43647;DHT22;56152;49.996;18.980;2023-02-26T14:19:30;0.70;93.40
43647;DHT22;56152;49.996;18.980;2023-02-26T14:24:35;0.60;93.60
43647;DHT22;56152;49.996;18.980;2023-02-26T14:29:42;0.60;93.70
43647;DHT22;56152;49.996;18.980;2023-02-26T14:34:49;0.60;93.70
43647;DHT22;56152;49.996;18.980;2023-02-26T14:39:57;0.60;93.70
43647;DHT22;56152;49.996;18.980;2023-02-26T14:45:31;0.60;93.70
43647;DHT22;56152;49.996;18.980;2023-02-26T14:50:40;0.70;93.70
43647;DHT22;56152;49.996;18.980;2023-02-26T14:55:52;0.70;93.70
43647;DHT22;56152;49.996;18.980;2023-02-26T15:01:06;0.60;93.60
43647;DHT22;56152;49.996;18.980;2023-02-26T15:06:27;0.60;93.70
43647;DHT22;56152;49.996;18.980;2023-02-26T15:11:43;0.60;93.70
43647;DHT22;56152;49.996;18.980;2023-02-26T15:16:58;0.60;93.70
43647;DHT22;56152;49.996;18.980;2023-02-26T15:22:16;0.60;93.70
43647;DHT22;56152;49.996;18.980;2023-02-26T15:27:23;0.50;93.80
43647;DHT22;56152;49.996;18.980;2023-02-26T15:32:29;0.50;93.80
43647;DHT22;56152;49.996;18.980;2023-02-26T15:37:32;0.50;93.90
43647;DHT22;56152;49.996;18.980;2023-02-26T15:42:37;0.40;93.90
43647;DHT22;56152;49.996;18.980;2023-02-26T15:47:43;0.50;93.90
43647;DHT22;56152;49.996;18.980;2023-02-26T15:52:50;0.40;93.90
43647;DHT22;56152;49.996;18.980;2023-02-26T15:57:58;0.40;93.90
43647;DHT22;56152;49.996;18.980;2023-02-26T16:03:03;0.40;93.90
43647;DHT22;56152;49.996;18.980;2023-02-26T16:08:05;0.40;93.90
43647;DHT22;56152;49.996;18.980;2023-02-26T16:13:14;0.30;93.80
43647;DHT22;56152;49.996;18.980;2023-02-26T16:18:23;0.20;93.90
43647;DHT22;56152;49.996;18.980;2023-02-26T16:23:38;0.20;93.90
43647;DHT22;56152;49.996;18.980;2023-02-26T16:28:43;0.10;93.90
43647;DHT22;56152;49.996;18.980;2023-02-26T16:34:03;0.10;93.90
43647;DHT22;56152;49.996;18.980;2023-02-26T16:39:16;0.00;94.20
43647;DHT22;56152;49.996;18.980;2023-02-26T16:44:45;-0.10;94.00
43647;DHT22;56152;49.996;18.980;2023-02-26T16:49:51;-0.20;94.00
43647;DHT22;56152;49.996;18.980;2023-02-26T16:54:57;-0.20;94.00
43647;DHT22;56152;49.996;18.980;2023-02-26T17:00:05;-0.20;93.90
43647;DHT22;56152;49.996;18.980;2023-02-26T17:05:19;-0.30;93.90
43647;DHT22;56152;49.996;18.980;2023-02-26T17:10:32;-0.30;94.00
43647;DHT22;56152;49.996;18.980;2023-02-26T17:15:38;-0.40;93.90
43647;DHT22;56152;49.996;18.980;2023-02-26T17:20:43;-0.30;94.00
43647;DHT22;56152;49.996;18.980;2023-02-26T17:25:48;-0.40;94.00
43647;DHT22;56152;49.996;18.980;2023-02-26T17:30:53;-0.40;94.10
43647;DHT22;56152;49.996;18.980;2023-02-26T17:36:15;-0.40;94.10
43647;DHT22;56152;49.996;18.980;2023-02-26T17:41:19;-0.50;94.10
43647;DHT22;56152;49.996;18.980;2023-02-26T17:46:22;-0.50;94.10
43647;DHT22;56152;49.996;18.980;2023-02-26T17:51:28;-0.50;94.20
43647;DHT22;56152;49.996;18.980;2023-02-26T17:56:32;-0.40;94.30
43647;DHT22;56152;49.996;18.980;2023-02-26T18:01:37;-0.40;94.30
43647;DHT22;56152;49.996;18.980;2023-02-26T18:06:41;-0.50;94.30
43647;DHT22;56152;49.996;18.980;2023-02-26T18:11:44;-0.50;94.30
43647;DHT22;56152;49.996;18.980;2023-02-26T18:16:47;-0.50;94.30
43647;DHT22;56152;49.996;18.980;2023-02-26T18:21:50;-0.40;94.40
43647;DHT22;56152;49.996;18.980;2023-02-26T18:26:54;-0.40;94.40
43647;DHT22;56152;49.996;18.980;2023-02-26T18:31:56;-0.50;94.40
43647;DHT22;56152;49.996;18.980;2023-02-26T18:37:01;-0.40;94.40
43647;DHT22;56152;49.996;18.980;2023-02-26T18:42:04;-0.50;94.40
43647;DHT22;56152;49.996;18.980;2023-02-26T18:47:07;-0.50;94.50
43647;DHT22;56152;49.996;18.980;2023-02-26T18:52:12;-0.50;94.50
43647;DHT22;56152;49.996;18.980;2023-02-26T18:57:17;-0.50;94.50
43647;DHT22;56152;49.996;18.980;2023-02-26T19:02:19;-0.50;94.60
43647;DHT22;56152;49.996;18.980;2023-02-26T19:07:24;-0.50;94.60
43647;DHT22;56152;49.996;18.980;2023-02-26T19:12:26;-0.50;94.60
43647;DHT22;56152;49.996;18.980;2023-02-26T19:17:28;-0.50;94.60
43647;DHT22;56152;49.996;18.980;2023-02-26T19:22:34;-0.50;94.60
43647;DHT22;56152;49.996;18.980;2023-02-26T19:27:36;-0.50;94.70
43647;DHT22;56152;49.996;18.980;2023-02-26T19:32:42;-0.50;94.60
43647;DHT22;56152;49.996;18.980;2023-02-26T19:37:50;-0.50;94.60
43647;DHT22;56152;49.996;18.980;2023-02-26T19:42:55;-0.50;94.70
43647;DHT22;56152;49.996;18.980;2023-02-26T19:47:57;-0.50;94.60
43647;DHT22;56152;49.996;18.980;2023-02-26T19:53:04;-0.50;94.70
43647;DHT22;56152;49.996;18.980;2023-02-26T19:58:08;-0.50;94.70
43647;DHT22;56152;49.996;18.980;2023-02-26T20:03:15;-0.50;94.70
43647;DHT22;56152;49.996;18.980;2023-02-26T20:08:21;-0.50;94.70
43647;DHT22;56152;49.996;18.980;2023-02-26T20:13:30;-0.50;94.80
43647;DHT22;56152;49.996;18.980;2023-02-26T20:18:35;-0.50;94.80
43647;DHT22;56152;49.996;18.980;2023-02-26T20:23:44;-0.50;94.80
43647;DHT22;56152;49.996;18.980;2023-02-26T20:28:46;-0.50;94.80
43647;DHT22;56152;49.996;18.980;2023-02-26T20:33:49;-0.50;94.80
43647;DHT22;56152;49.996;18.980;2023-02-26T20:38:53;-0.50;94.90
43647;DHT22;56152;49.996;18.980;2023-02-26T20:43:55;-0.20;94.90
43647;DHT22;56152;49.996;18.980;2023-02-26T20:48:59;0.00;94.60
43647;DHT22;56152;49.996;18.980;2023-02-26T20:54:04;0.10;94.40
43647;DHT22;56152;49.996;18.980;2023-02-26T20:59:06;0.20;94.30
43647;DHT22;56152;49.996;18.980;2023-02-26T21:04:09;0.30;94.20
43647;DHT22;56152;49.996;18.980;2023-02-26T21:09:13;0.30;94.20
43647;DHT22;56152;49.996;18.980;2023-02-26T21:14:16;0.30;94.20
43647;DHT22;56152;49.996;18.980;2023-02-26T21:19:18;0.30;94.20
43647;DHT22;56152;49.996;18.980;2023-02-26T21:24:23;0.20;94.20
43647;DHT22;56152;49.996;18.980;2023-02-26T21:29:26;0.20;94.20
43647;DHT22;56152;49.996;18.980;2023-02-26T21:34:30;0.10;94.30
43647;DHT22;56152;49.996;18.980;2023-02-26T21:39:35;0.10;94.40
43647;DHT22;56152;49.996;18.980;2023-02-26T21:44:37;0.10;94.30
43647;DHT22;56152;49.996;18.980;2023-02-26T21:49:42;0.10;94.30
43647;DHT22;56152;49.996;18.980;2023-02-26T21:54:47;0.00;94.30
43647;DHT22;56152;49.996;18.980;2023-02-26T21:59:49;0.00;94.40
43647;DHT22;56152;49.996;18.980;2023-02-26T22:04:51;-0.10;94.40
43647;DHT22;56152;49.996;18.980;2023-02-26T22:09:55;-0.10;94.40
43647;DHT22;56152;49.996;18.980;2023-02-26T22:14:57;-0.10;94.40
43647;DHT22;56152;49.996;18.980;2023-02-26T22:20:00;-0.20;94.50
43647;DHT22;56152;49.996;18.980;2023-02-26T22:25:10;-0.20;94.50
43647;DHT22;56152;49.996;18.980;2023-02-26T22:30:13;-0.10;94.60
43647;DHT22;56152;49.996;18.980;2023-02-26T22:35:16;-0.20;94.50
43647;DHT22;56152;49.996;18.980;2023-02-26T22:40:19;-0.20;94.50
43647;DHT22;56152;49.996;18.980;2023-02-26T22:45:21;-0.30;94.60
43647;DHT22;56152;49.996;18.980;2023-02-26T22:50:27;-0.30;94.60
43647;DHT22;56152;49.996;18.980;2023-02-26T22:55:31;-0.30;94.60
43647;DHT22;56152;49.996;18.980;2023-02-26T23:00:33;-0.40;94.60
43647;DHT22;56152;49.996;18.980;2023-02-26T23:05:37;-0.40;94.70
43647;DHT22;56152;49.996;18.980;2023-02-26T23:10:42;-0.40;94.70
43647;DHT22;56152;49.996;18.980;2023-02-26T23:15:45;-0.40;94.80
43647;DHT22;56152;49.996;18.980;2023-02-26T23:20:49;-0.40;94.80
43647;DHT22;56152;49.996;18.980;2023-02-26T23:25:57;-0.40;94.70
43647;DHT22;56152;49.996;18.980;2023-02-26T23:31:02;-0.50;94.80
43647;DHT22;56152;49.996;18.980;2023-02-26T23:36:06;-0.50;94.80
43647;DHT22;56152;49.996;18.980;2023-02-26T23:41:09;-0.50;94.80
43647;DHT22;56152;49.996;18.980;2023-02-26T23:46:13;-0.50;94.80
43647;DHT22;56152;49.996;18.980;2023-02-26T23:51:15;-0.50;94.80
43647;DHT22;56152;49.996;18.980;2023-02-26T23:56:19;-0.50;94.80
